Augsburg, Illinois
Current Conditions -  °F | °C
As of 12:15 PM on Thursday 27 Nov 2014 (Local Time) from KENL Reporting Station
Overcast Overcast  
Wind Chill: 23°   Ceiling: 4100
Heat Index: 30°   Visibility: 10mi
Dew Point: 22°   Wind: 7mph
Humidity: 74%   Direction: 300°WNW
Pressure: 30.45"   Gusts: NA
Location:  38.8463°N, 89.0894°W
Report Text: KENL 271815Z AUTO 30006KT 10SM SCT030 OVC041 M01/M05 A3045 RMK AO2 T10131054
Loading
Personal Weather Stations






























Interactive Weather Map New forecast layout! Learn more

10-Day Weather Forecast

Advertisements
Track Severe Weather on mobile